createdAt,value
2017-07-02T00:01:16.950Z,17.40
2017-07-02T00:03:45.239Z,17.40
2017-07-02T00:06:14.291Z,17.30
2017-07-02T00:08:43.775Z,17.30
2017-07-02T00:13:41.997Z,17.30
2017-07-02T00:16:10.373Z,17.30
2017-07-02T00:18:38.671Z,17.30
2017-07-02T00:21:07.747Z,17.30
2017-07-02T00:23:36.080Z,17.30
2017-07-02T00:26:05.123Z,17.30
2017-07-02T00:28:34.182Z,17.30
2017-07-02T00:31:02.508Z,17.30
2017-07-02T00:33:30.792Z,17.30
2017-07-02T00:36:00.210Z,17.30
2017-07-02T00:38:28.563Z,17.30
2017-07-02T00:40:56.861Z,17.30
2017-07-02T00:43:25.147Z,17.30
2017-07-02T00:45:55.009Z,17.30
2017-07-02T00:48:23.288Z,17.30
2017-07-02T00:50:51.574Z,17.30
2017-07-02T00:55:50.171Z,17.30
2017-07-02T00:58:18.455Z,17.30
2017-07-02T01:00:47.578Z,17.30
2017-07-02T01:05:45.762Z,17.30
2017-07-02T01:08:14.498Z,17.30
2017-07-02T01:10:43.923Z,17.30
2017-07-02T01:13:12.220Z,17.30
2017-07-02T01:15:40.575Z,17.30
2017-07-02T01:18:08.873Z,17.30
2017-07-02T01:20:37.191Z,17.30
2017-07-02T01:23:05.532Z,17.40
2017-07-02T01:25:34.574Z,17.30
2017-07-02T01:28:03.626Z,17.30
2017-07-02T01:30:31.955Z,17.40
2017-07-02T01:33:01.559Z,17.40
2017-07-02T01:35:29.839Z,17.40
2017-07-02T01:37:58.207Z,17.40
2017-07-02T01:40:26.500Z,17.40
2017-07-02T01:42:55.582Z,17.40
2017-07-02T01:47:53.717Z,17.40
2017-07-02T01:50:21.999Z,17.40
2017-07-02T01:52:50.343Z,17.40
2017-07-02T01:55:18.670Z,17.40
2017-07-02T01:57:46.950Z,17.40
2017-07-02T02:00:15.291Z,17.40
2017-07-02T02:02:56.338Z,17.40
2017-07-02T02:05:25.502Z,17.40
2017-07-02T02:07:54.595Z,17.40
2017-07-02T02:10:23.645Z,17.40
2017-07-02T02:12:51.998Z,17.40
2017-07-02T02:15:21.422Z,17.40
2017-07-02T02:20:20.279Z,17.40
2017-07-02T02:22:49.326Z,17.40
2017-07-02T02:25:18.374Z,17.40
2017-07-02T02:27:47.477Z,17.40
2017-07-02T02:30:15.780Z,17.40
2017-07-02T02:32:44.127Z,17.40
2017-07-02T02:35:12.496Z,17.40
2017-07-02T02:37:41.187Z,17.40
2017-07-02T02:40:09.933Z,17.40
2017-07-02T02:42:38.675Z,17.30
2017-07-02T02:45:06.962Z,17.30
2017-07-02T02:50:05.593Z,17.30
2017-07-02T02:52:35.002Z,17.30
2017-07-02T02:55:03.290Z,17.30
2017-07-02T03:00:01.551Z,17.30
2017-07-02T03:02:29.834Z,17.30
2017-07-02T03:04:58.207Z,17.30
2017-07-02T03:09:57.564Z,17.30
2017-07-02T03:14:55.427Z,17.30
2017-07-02T03:17:23.744Z,17.30
2017-07-02T03:19:52.422Z,17.20
2017-07-02T03:22:21.846Z,17.20
2017-07-02T03:24:50.126Z,17.30
2017-07-02T03:29:48.754Z,17.30
2017-07-02T03:32:17.038Z,17.30
2017-07-02T03:34:46.046Z,17.30
2017-07-02T03:37:15.100Z,17.30
2017-07-02T03:42:13.731Z,17.30
2017-07-02T03:44:42.034Z,17.30
2017-07-02T03:49:41.178Z,17.40
2017-07-02T03:54:39.427Z,17.40
2017-07-02T03:57:08.101Z,17.40
2017-07-02T03:59:36.392Z,17.40
2017-07-02T04:02:05.446Z,17.40
2017-07-02T04:04:33.782Z,17.40
2017-07-02T04:07:02.830Z,17.40
2017-07-02T04:09:32.255Z,17.40
2017-07-02T04:12:00.922Z,17.30
2017-07-02T04:14:30.712Z,17.30
2017-07-02T04:19:29.706Z,17.40
2017-07-02T04:21:59.127Z,17.40
2017-07-02T04:24:27.431Z,17.30
2017-07-02T04:26:55.815Z,17.30
2017-07-02T04:31:55.151Z,17.30
2017-07-02T04:34:23.756Z,17.30
2017-07-02T04:36:53.175Z,17.20
2017-07-02T04:39:21.459Z,17.20
2017-07-02T04:41:49.786Z,17.30
2017-07-02T04:44:18.471Z,17.30
2017-07-02T04:46:46.755Z,17.40
2017-07-02T04:49:15.856Z,17.40
2017-07-02T04:51:44.139Z,17.40
2017-07-02T04:56:42.408Z,17.30
2017-07-02T04:59:11.465Z,17.30
2017-07-02T05:01:40.911Z,17.40
2017-07-02T05:04:09.271Z,17.40
2017-07-02T05:06:38.709Z,17.40
2017-07-02T05:11:36.966Z,17.50
2017-07-02T05:14:05.243Z,17.40
2017-07-02T05:16:33.524Z,17.50
2017-07-02T05:19:03.358Z,17.50
2017-07-02T05:21:31.641Z,17.50
2017-07-02T05:23:59.919Z,17.50
2017-07-02T05:26:28.286Z,17.50
2017-07-02T05:28:57.711Z,17.50
2017-07-02T05:31:26.012Z,17.50
2017-07-02T05:33:54.362Z,17.50
2017-07-02T05:36:22.643Z,17.60
2017-07-02T05:38:50.922Z,17.60
2017-07-02T05:41:19.274Z,17.50
2017-07-02T05:43:47.547Z,17.60
2017-07-02T05:48:46.786Z,17.60
2017-07-02T05:51:15.458Z,17.60
2017-07-02T05:53:43.742Z,17.70
2017-07-02T05:56:12.068Z,17.70
2017-07-02T05:58:40.755Z,17.70
2017-07-02T06:01:09.049Z,17.70
2017-07-02T06:03:37.408Z,17.70
2017-07-02T06:06:05.683Z,17.80
2017-07-02T06:08:33.967Z,17.80
2017-07-02T06:11:03.438Z,17.80
2017-07-02T06:13:32.487Z,17.90
2017-07-02T06:16:00.770Z,18.00
2017-07-02T06:18:30.227Z,18.00
2017-07-02T06:20:58.518Z,18.10
2017-07-02T06:23:26.816Z,18.10
2017-07-02T06:25:55.695Z,18.20
2017-07-02T06:28:24.370Z,18.20
2017-07-02T06:30:53.423Z,18.30
2017-07-02T06:35:51.650Z,18.40
2017-07-02T06:38:19.931Z,18.50
2017-07-02T06:40:49.035Z,18.50
2017-07-02T06:43:17.314Z,18.50
2017-07-02T06:45:45.595Z,18.50
2017-07-02T06:48:14.043Z,18.60
2017-07-02T06:50:43.219Z,18.60
2017-07-02T06:53:11.530Z,18.60
2017-07-02T06:55:39.874Z,18.60
2017-07-02T06:58:08.180Z,18.60
2017-07-02T07:00:37.976Z,18.60
2017-07-02T07:03:07.066Z,18.60
2017-07-02T07:05:36.486Z,18.60
2017-07-02T07:08:04.763Z,18.70
2017-07-02T07:10:33.378Z,18.70
2017-07-02T07:13:02.062Z,18.70
2017-07-02T07:15:30.339Z,18.80
2017-07-02T07:17:58.696Z,18.80
2017-07-02T07:20:26.989Z,18.80
2017-07-02T07:22:56.788Z,18.80
2017-07-02T07:25:25.111Z,18.80
2017-07-02T07:27:53.399Z,18.80
2017-07-02T07:30:21.675Z,18.80
2017-07-02T07:32:50.002Z,18.70
2017-07-02T07:35:19.415Z,18.80
2017-07-02T07:37:47.699Z,18.80
2017-07-02T07:40:16.026Z,18.70
2017-07-02T07:42:44.315Z,18.70
2017-07-02T07:45:12.607Z,18.70
2017-07-02T07:47:40.951Z,18.70
2017-07-02T07:50:09.255Z,18.80
2017-07-02T07:52:39.609Z,18.80
2017-07-02T07:55:08.359Z,18.90
2017-07-02T07:57:37.453Z,18.90
2017-07-02T08:00:06.134Z,18.90
2017-07-02T08:02:34.478Z,19.00
2017-07-02T08:07:32.668Z,19.00
2017-07-02T08:10:00.998Z,18.90
2017-07-02T08:12:29.279Z,19.00
2017-07-02T08:14:57.975Z,18.90
2017-07-02T08:17:26.326Z,18.90
2017-07-02T08:19:55.376Z,18.80
2017-07-02T08:22:23.666Z,18.80
2017-07-02T08:24:52.011Z,18.70
2017-07-02T08:27:20.290Z,18.70
2017-07-02T08:29:48.575Z,18.70
2017-07-02T08:32:18.055Z,18.60
2017-07-02T08:34:46.739Z,18.70
2017-07-02T08:39:45.363Z,18.60
2017-07-02T08:42:14.418Z,18.60
2017-07-02T08:44:42.711Z,18.60
2017-07-02T08:49:40.582Z,18.60
2017-07-02T08:52:08.880Z,18.60
2017-07-02T08:54:37.241Z,18.60
2017-07-02T08:57:07.030Z,18.70
2017-07-02T08:59:36.102Z,18.70
2017-07-02T09:02:05.579Z,18.70
2017-07-02T09:04:33.984Z,18.80
2017-07-02T09:07:02.271Z,18.80
2017-07-02T09:09:30.624Z,18.80
2017-07-02T09:12:00.422Z,18.80
2017-07-02T09:14:28.722Z,18.90
2017-07-02T09:19:26.994Z,18.90
2017-07-02T09:21:56.054Z,19.00
2017-07-02T09:24:24.382Z,19.00
2017-07-02T09:26:52.666Z,19.00
2017-07-02T09:29:20.950Z,19.00
2017-07-02T09:31:50.876Z,19.00
2017-07-02T09:34:20.671Z,19.00
2017-07-02T09:39:19.079Z,18.90
2017-07-02T09:41:47.362Z,19.00
2017-07-02T09:44:15.659Z,19.00
2017-07-02T09:46:44.772Z,19.00
2017-07-02T09:49:13.825Z,19.00
2017-07-02T09:51:42.157Z,19.00
2017-07-02T09:54:10.471Z,19.00
2017-07-02T09:56:38.775Z,19.00
2017-07-02T09:59:09.970Z,19.00
2017-07-02T10:01:39.074Z,19.10
2017-07-02T10:04:08.157Z,19.10
2017-07-02T10:06:36.475Z,19.10
2017-07-02T10:09:06.302Z,19.20
2017-07-02T10:11:34.587Z,19.30
2017-07-02T10:16:32.779Z,19.40
2017-07-02T10:19:01.827Z,19.50
2017-07-02T10:21:30.878Z,19.50
2017-07-02T10:23:59.991Z,19.50
2017-07-02T10:26:29.410Z,19.60
2017-07-02T10:31:28.402Z,19.80
2017-07-02T10:33:57.837Z,19.90
2017-07-02T10:36:26.125Z,20.00
2017-07-02T10:38:55.608Z,20.00
2017-07-02T10:43:53.794Z,20.10
2017-07-02T10:46:22.142Z,20.20
2017-07-02T10:48:51.930Z,20.20
2017-07-02T10:53:50.319Z,20.30
2017-07-02T10:56:18.606Z,20.30
2017-07-02T10:58:46.887Z,20.30
2017-07-02T11:01:15.239Z,20.40
2017-07-02T11:03:43.542Z,20.40
2017-07-02T11:06:13.348Z,20.50
2017-07-02T11:08:43.208Z,20.50
2017-07-02T11:11:11.499Z,20.50
2017-07-02T11:16:10.495Z,20.60
2017-07-02T11:18:39.180Z,20.60
2017-07-02T11:21:08.607Z,20.60
2017-07-02T11:23:37.337Z,20.50
2017-07-02T11:28:35.894Z,20.40
2017-07-02T11:31:05.751Z,20.40
2017-07-02T11:33:34.036Z,20.40
2017-07-02T11:36:03.083Z,20.30
2017-07-02T11:38:32.178Z,20.10
2017-07-02T11:41:00.460Z,19.90
2017-07-02T11:43:29.518Z,19.80
2017-07-02T11:45:59.358Z,19.60
2017-07-02T11:48:27.650Z,19.50
2017-07-02T11:50:57.074Z,19.40
2017-07-02T11:53:25.668Z,19.30
2017-07-02T11:55:55.460Z,19.20
2017-07-02T12:00:54.366Z,19.20
2017-07-02T12:03:23.418Z,19.20
2017-07-02T12:05:51.698Z,19.20
2017-07-02T12:08:21.544Z,19.30
2017-07-02T12:10:49.832Z,19.40
2017-07-02T12:13:19.623Z,19.60
2017-07-02T12:15:47.970Z,19.70
2017-07-02T12:18:16.254Z,19.70
2017-07-02T12:20:44.533Z,19.80
2017-07-02T12:25:42.439Z,20.00
2017-07-02T12:28:10.726Z,20.10
2017-07-02T12:30:39.081Z,20.30
2017-07-02T12:33:07.367Z,20.50
2017-07-02T12:35:37.164Z,20.60
2017-07-02T12:38:05.529Z,20.80
2017-07-02T12:40:34.950Z,20.90
2017-07-02T12:43:03.254Z,21.00
2017-07-02T12:45:32.383Z,21.20
2017-07-02T12:48:01.795Z,21.20
2017-07-02T12:50:31.594Z,21.30
2017-07-02T12:52:59.950Z,21.40
2017-07-02T12:55:28.231Z,21.50
2017-07-02T12:57:56.515Z,21.50
2017-07-02T13:00:26.013Z,21.70
2017-07-02T13:02:55.148Z,21.70
2017-07-02T13:05:24.201Z,21.80
2017-07-02T13:07:52.527Z,21.90
2017-07-02T13:10:22.474Z,22.00
2017-07-02T13:12:50.763Z,22.10
2017-07-02T13:15:19.090Z,22.20
2017-07-02T13:17:47.375Z,22.30
2017-07-02T13:20:15.658Z,22.40
2017-07-02T13:22:44.963Z,22.40
2017-07-02T13:27:43.156Z,22.60
2017-07-02T13:30:12.290Z,22.80
2017-07-02T13:32:41.359Z,23.00
2017-07-02T13:35:09.663Z,23.10
2017-07-02T13:37:38.652Z,23.20
2017-07-02T13:40:07.757Z,23.30
2017-07-02T13:42:36.044Z,23.20
2017-07-02T13:45:04.766Z,23.10
2017-07-02T13:50:02.541Z,23.10
2017-07-02T13:52:30.858Z,23.00
2017-07-02T13:55:00.639Z,22.90
2017-07-02T13:57:28.938Z,22.90
2017-07-02T13:59:57.375Z,22.80
2017-07-02T14:02:25.647Z,22.80
2017-07-02T14:04:53.939Z,22.80
2017-07-02T14:07:24.115Z,22.70
2017-07-02T14:09:52.799Z,22.70
2017-07-02T14:12:21.082Z,22.60
2017-07-02T14:14:49.430Z,22.50
2017-07-02T14:17:17.750Z,22.50
2017-07-02T14:19:46.007Z,22.40
2017-07-02T14:22:15.476Z,22.30
2017-07-02T14:24:43.767Z,22.20
2017-07-02T14:29:42.562Z,22.00
2017-07-02T14:32:10.860Z,21.90
2017-07-02T14:34:39.175Z,21.80
2017-07-02T14:39:37.034Z,21.60
2017-07-02T14:44:35.606Z,21.60
2017-07-02T14:47:04.659Z,21.60
2017-07-02T14:49:33.707Z,21.60
2017-07-02T14:52:02.327Z,21.60
2017-07-02T14:54:31.016Z,21.60
2017-07-02T14:56:59.302Z,21.70
2017-07-02T14:59:27.654Z,21.70
2017-07-02T15:01:57.479Z,21.70
2017-07-02T15:04:25.769Z,21.70
2017-07-02T15:06:55.032Z,21.60
2017-07-02T15:09:24.459Z,21.50
2017-07-02T15:14:22.297Z,21.50
2017-07-02T15:16:50.969Z,21.50
2017-07-02T15:19:20.760Z,21.50
2017-07-02T15:31:47.827Z,21.50
2017-07-02T15:34:16.884Z,21.50
2017-07-02T15:36:45.223Z,21.50
2017-07-02T15:39:13.642Z,21.60
2017-07-02T15:41:43.123Z,21.60
2017-07-02T15:44:11.487Z,21.60
2017-07-02T15:46:39.798Z,21.60
2017-07-02T15:49:08.494Z,21.70
2017-07-02T15:51:37.584Z,21.70
2017-07-02T15:54:06.627Z,21.70
2017-07-02T15:56:34.958Z,21.60
2017-07-02T15:59:04.794Z,21.70
2017-07-02T16:01:33.078Z,21.60
2017-07-02T16:04:02.895Z,21.60
2017-07-02T16:09:01.191Z,21.70
2017-07-02T16:11:30.227Z,21.60
2017-07-02T16:13:59.332Z,21.60
2017-07-02T16:16:28.742Z,21.60
2017-07-02T16:18:57.041Z,21.60
2017-07-02T16:21:25.359Z,21.60
2017-07-02T16:23:53.635Z,21.60
2017-07-02T16:26:21.906Z,21.50
2017-07-02T16:28:51.390Z,21.50
2017-07-02T16:31:20.487Z,21.50
2017-07-02T16:33:49.546Z,21.50
2017-07-02T16:36:17.863Z,21.40
2017-07-02T16:38:46.500Z,21.40
2017-07-02T16:41:14.843Z,21.30
2017-07-02T16:43:43.243Z,21.30
2017-07-02T16:46:13.039Z,21.40
2017-07-02T16:48:42.091Z,21.30
2017-07-02T16:51:11.336Z,21.30
2017-07-02T16:53:39.631Z,21.30
2017-07-02T16:56:08.306Z,21.30
2017-07-02T16:58:36.934Z,21.20
2017-07-02T17:01:05.263Z,21.20
2017-07-02T17:03:34.667Z,21.10
2017-07-02T17:06:03.756Z,21.10
2017-07-02T17:08:33.174Z,21.10
2017-07-02T17:11:01.451Z,21.20
2017-07-02T17:13:29.798Z,21.10
2017-07-02T17:15:58.091Z,21.10
2017-07-02T17:18:26.375Z,21.10
2017-07-02T17:20:55.831Z,21.00
2017-07-02T17:23:24.113Z,21.00
2017-07-02T17:25:55.524Z,20.90
2017-07-02T17:28:24.144Z,20.90
2017-07-02T17:30:52.813Z,20.90
2017-07-02T17:33:21.090Z,20.90
2017-07-02T17:38:19.728Z,20.80
2017-07-02T17:40:48.396Z,20.80
2017-07-02T17:45:46.821Z,20.80
2017-07-02T17:48:15.115Z,20.70
2017-07-02T17:50:43.835Z,20.70
2017-07-02T17:53:12.897Z,20.60
2017-07-02T17:55:41.182Z,20.60
2017-07-02T17:58:09.551Z,20.60
2017-07-02T18:00:37.860Z,20.60
2017-07-02T18:03:06.135Z,20.60
2017-07-02T18:08:04.364Z,20.50
2017-07-02T18:10:32.645Z,20.50
2017-07-02T18:15:31.139Z,20.40
2017-07-02T18:18:00.179Z,20.40
2017-07-02T18:20:28.786Z,20.30
2017-07-02T18:22:58.590Z,20.30
2017-07-02T18:25:26.901Z,20.20
2017-07-02T18:27:55.222Z,20.20
2017-07-02T18:30:24.518Z,20.20
2017-07-02T18:32:53.087Z,20.10
2017-07-02T18:35:21.422Z,20.10
2017-07-02T18:40:19.228Z,20.00
2017-07-02T18:42:47.562Z,19.90
2017-07-02T18:45:15.863Z,19.90
2017-07-02T18:47:44.171Z,19.90
2017-07-02T18:52:42.488Z,19.80
2017-07-02T18:55:10.789Z,19.90
2017-07-02T18:57:39.927Z,19.80
2017-07-02T19:00:08.260Z,19.80
2017-07-02T19:02:37.309Z,19.80
2017-07-02T19:05:06.437Z,19.70
2017-07-02T19:07:34.715Z,19.70
2017-07-02T19:10:03.003Z,19.60
2017-07-02T19:12:33.350Z,19.60
2017-07-02T19:15:01.623Z,19.60
2017-07-02T19:17:29.907Z,19.50
2017-07-02T19:19:58.996Z,19.50
2017-07-02T19:24:57.551Z,19.50
2017-07-02T19:27:25.884Z,19.40
2017-07-02T19:29:54.158Z,19.40
2017-07-02T19:32:23.563Z,19.30
2017-07-02T19:34:53.463Z,19.30
2017-07-02T19:37:21.731Z,19.30
2017-07-02T19:39:50.011Z,19.20
2017-07-02T19:42:19.121Z,19.10
2017-07-02T19:44:48.160Z,19.10
2017-07-02T19:47:16.435Z,19.00
2017-07-02T19:49:46.636Z,19.00
2017-07-02T19:52:16.418Z,18.90
2017-07-02T19:54:44.696Z,18.90
2017-07-02T19:57:13.794Z,18.80
2017-07-02T19:59:42.852Z,18.80
2017-07-02T20:02:11.162Z,18.70
2017-07-02T20:04:39.815Z,18.60
2017-07-02T20:07:09.645Z,18.60
2017-07-02T20:09:39.460Z,18.60
2017-07-02T20:12:08.068Z,18.50
2017-07-02T20:17:06.246Z,18.40
2017-07-02T20:19:35.355Z,18.40
2017-07-02T20:22:03.627Z,18.30
2017-07-02T20:24:31.902Z,18.30
2017-07-02T20:27:00.222Z,18.20
2017-07-02T20:29:28.516Z,18.20
2017-07-02T20:31:56.821Z,18.10
2017-07-02T20:34:26.720Z,18.00
2017-07-02T20:36:54.999Z,18.00
2017-07-02T20:39:23.278Z,18.00
2017-07-02T20:41:51.597Z,17.90
2017-07-02T20:44:21.015Z,17.80
2017-07-02T20:46:49.686Z,17.80
2017-07-02T20:49:18.014Z,17.80
2017-07-02T20:51:47.434Z,17.70
2017-07-02T20:54:15.716Z,17.70
2017-07-02T20:56:44.328Z,17.60
2017-07-02T20:59:13.374Z,17.60
2017-07-02T21:01:41.683Z,17.60
2017-07-02T21:04:10.794Z,17.50
2017-07-02T21:06:39.866Z,17.50
2017-07-02T21:09:08.168Z,17.40
2017-07-02T21:11:36.845Z,17.40
2017-07-02T21:14:05.886Z,17.30
2017-07-02T21:16:34.167Z,17.30
2017-07-02T21:19:02.491Z,17.20
2017-07-02T21:21:30.771Z,17.20
2017-07-02T21:23:59.067Z,17.20
2017-07-02T21:26:27.550Z,17.10
2017-07-02T21:28:55.828Z,17.10
2017-07-02T21:31:25.243Z,17.10
2017-07-02T21:33:53.599Z,17.10
2017-07-02T21:36:21.886Z,17.10
2017-07-02T21:38:50.161Z,17.00
2017-07-02T21:41:18.478Z,17.00
2017-07-02T21:43:47.153Z,16.90
2017-07-02T21:46:15.428Z,16.90
2017-07-02T21:48:43.784Z,16.90
2017-07-02T21:51:12.091Z,16.80
2017-07-02T21:53:40.383Z,16.80
2017-07-02T21:58:38.652Z,16.80
2017-07-02T22:01:06.932Z,16.70
2017-07-02T22:03:35.251Z,16.70
2017-07-02T22:06:04.296Z,16.60
2017-07-02T22:08:32.567Z,16.60
2017-07-02T22:11:00.895Z,16.60
2017-07-02T22:13:29.175Z,16.50
2017-07-02T22:15:57.482Z,16.50
2017-07-02T22:23:25.248Z,16.40
2017-07-02T22:25:53.907Z,16.40
2017-07-02T22:28:23.318Z,16.40
2017-07-02T22:30:51.598Z,16.30
2017-07-02T22:33:19.922Z,16.30
2017-07-02T22:35:49.699Z,16.20
2017-07-02T22:38:17.975Z,16.20
2017-07-02T22:40:46.650Z,16.20
2017-07-02T22:43:16.071Z,16.20
2017-07-02T22:45:44.351Z,16.20
2017-07-02T22:48:12.966Z,16.10
2017-07-02T22:50:42.762Z,16.10
2017-07-02T22:53:11.828Z,16.10
2017-07-02T22:55:41.315Z,16.00
2017-07-02T22:58:09.600Z,16.00
2017-07-02T23:00:39.405Z,16.00
2017-07-02T23:03:07.739Z,15.90
2017-07-02T23:05:36.011Z,15.80
2017-07-02T23:08:04.287Z,15.80
2017-07-02T23:10:33.402Z,15.80
2017-07-02T23:13:01.670Z,15.80
2017-07-02T23:15:29.947Z,15.70
2017-07-02T23:17:58.281Z,15.60
2017-07-02T23:20:26.568Z,15.60
2017-07-02T23:22:54.843Z,15.50
2017-07-02T23:25:24.075Z,15.40
2017-07-02T23:27:52.344Z,15.40
2017-07-02T23:30:20.614Z,15.30
2017-07-02T23:32:49.540Z,15.30
2017-07-02T23:35:18.951Z,15.30
2017-07-02T23:37:47.227Z,15.20
2017-07-02T23:42:46.876Z,15.10
2017-07-02T23:47:45.127Z,15.00
2017-07-02T23:50:13.433Z,15.00
2017-07-02T23:52:43.227Z,15.00
2017-07-02T23:55:11.575Z,15.00
2017-07-02T23:57:41.367Z,14.90
